sensor_id;sensor_type;location;lat;lon;timestamp;P1;durP1;ratioP1;P2;durP2;ratioP2
41201;SDS011;26936;50.524;8.684;2023-02-12T00:02:24;79.30;;;29.15;;
41201;SDS011;26936;50.524;8.684;2023-02-12T00:04:49;75.18;;;28.30;;
41201;SDS011;26936;50.524;8.684;2023-02-12T00:07:14;74.47;;;28.30;;
41201;SDS011;26936;50.524;8.684;2023-02-12T00:09:40;67.43;;;28.20;;
41201;SDS011;26936;50.524;8.684;2023-02-12T00:12:05;69.50;;;27.20;;
41201;SDS011;26936;50.524;8.684;2023-02-12T00:14:30;71.65;;;29.08;;
41201;SDS011;26936;50.524;8.684;2023-02-12T00:16:56;63.38;;;27.60;;
41201;SDS011;26936;50.524;8.684;2023-02-12T00:19:21;70.47;;;26.80;;
41201;SDS011;26936;50.524;8.684;2023-02-12T00:21:46;66.53;;;27.52;;
41201;SDS011;26936;50.524;8.684;2023-02-12T00:24:12;73.47;;;28.00;;
41201;SDS011;26936;50.524;8.684;2023-02-12T00:26:37;76.87;;;28.80;;
41201;SDS011;26936;50.524;8.684;2023-02-12T00:29:02;74.40;;;29.30;;
41201;SDS011;26936;50.524;8.684;2023-02-12T00:31:28;69.35;;;27.08;;
41201;SDS011;26936;50.524;8.684;2023-02-12T00:33:55;70.70;;;28.13;;
41201;SDS011;26936;50.524;8.684;2023-02-12T00:36:23;73.43;;;28.52;;
41201;SDS011;26936;50.524;8.684;2023-02-12T00:38:52;66.03;;;27.67;;
41201;SDS011;26936;50.524;8.684;2023-02-12T00:41:19;72.47;;;28.77;;
41201;SDS011;26936;50.524;8.684;2023-02-12T00:43:45;72.72;;;28.77;;
41201;SDS011;26936;50.524;8.684;2023-02-12T00:46:11;66.30;;;25.30;;
41201;SDS011;26936;50.524;8.684;2023-02-12T00:48:37;66.43;;;26.45;;
41201;SDS011;26936;50.524;8.684;2023-02-12T00:51:02;62.05;;;26.05;;
41201;SDS011;26936;50.524;8.684;2023-02-12T00:53:28;69.20;;;27.88;;
41201;SDS011;26936;50.524;8.684;2023-02-12T00:55:54;64.70;;;27.42;;
41201;SDS011;26936;50.524;8.684;2023-02-12T00:58:20;70.25;;;27.40;;
41201;SDS011;26936;50.524;8.684;2023-02-12T01:00:45;69.85;;;26.98;;
41201;SDS011;26936;50.524;8.684;2023-02-12T01:03:10;68.38;;;27.08;;
41201;SDS011;26936;50.524;8.684;2023-02-12T01:05:36;71.05;;;28.42;;
41201;SDS011;26936;50.524;8.684;2023-02-12T01:08:01;70.07;;;27.83;;
41201;SDS011;26936;50.524;8.684;2023-02-12T01:10:27;74.10;;;30.02;;
41201;SDS011;26936;50.524;8.684;2023-02-12T01:12:52;72.70;;;28.40;;
41201;SDS011;26936;50.524;8.684;2023-02-12T01:15:18;70.32;;;28.13;;
41201;SDS011;26936;50.524;8.684;2023-02-12T01:17:43;71.68;;;29.48;;
41201;SDS011;26936;50.524;8.684;2023-02-12T01:20:10;70.47;;;27.10;;
41201;SDS011;26936;50.524;8.684;2023-02-12T01:22:41;67.75;;;29.40;;
41201;SDS011;26936;50.524;8.684;2023-02-12T01:25:07;69.28;;;29.23;;
41201;SDS011;26936;50.524;8.684;2023-02-12T01:27:33;66.63;;;28.15;;
41201;SDS011;26936;50.524;8.684;2023-02-12T01:29:58;66.53;;;28.02;;
41201;SDS011;26936;50.524;8.684;2023-02-12T01:32:23;69.10;;;29.33;;
41201;SDS011;26936;50.524;8.684;2023-02-12T01:34:49;77.93;;;30.27;;
41201;SDS011;26936;50.524;8.684;2023-02-12T01:37:14;72.15;;;29.60;;
41201;SDS011;26936;50.524;8.684;2023-02-12T01:39:40;75.20;;;30.60;;
41201;SDS011;26936;50.524;8.684;2023-02-12T01:42:05;79.80;;;30.55;;
41201;SDS011;26936;50.524;8.684;2023-02-12T01:44:32;71.13;;;29.95;;
41201;SDS011;26936;50.524;8.684;2023-02-12T01:47:02;69.18;;;29.30;;
41201;SDS011;26936;50.524;8.684;2023-02-12T01:49:33;72.70;;;30.15;;
41201;SDS011;26936;50.524;8.684;2023-02-12T01:52:05;80.50;;;30.45;;
41201;SDS011;26936;50.524;8.684;2023-02-12T01:54:44;75.70;;;29.33;;
41201;SDS011;26936;50.524;8.684;2023-02-12T01:57:10;69.93;;;26.98;;
41201;SDS011;26936;50.524;8.684;2023-02-12T01:59:38;69.75;;;28.52;;
41201;SDS011;26936;50.524;8.684;2023-02-12T02:02:06;61.67;;;26.25;;
41201;SDS011;26936;50.524;8.684;2023-02-12T02:04:39;66.55;;;27.73;;
41201;SDS011;26936;50.524;8.684;2023-02-12T02:07:08;64.25;;;26.70;;
41201;SDS011;26936;50.524;8.684;2023-02-12T02:09:35;66.68;;;27.65;;
41201;SDS011;26936;50.524;8.684;2023-02-12T02:12:03;79.43;;;30.95;;
41201;SDS011;26936;50.524;8.684;2023-02-12T02:14:48;68.85;;;29.23;;
41201;SDS011;26936;50.524;8.684;2023-02-12T02:26:18;69.50;;;28.73;;
41201;SDS011;26936;50.524;8.684;2023-02-12T02:31:35;79.90;;;29.05;;
41201;SDS011;26936;50.524;8.684;2023-02-12T02:39:42;86.55;;;31.75;;
41201;SDS011;26936;50.524;8.684;2023-02-12T02:47:40;85.53;;;32.77;;
41201;SDS011;26936;50.524;8.684;2023-02-12T02:50:14;85.53;;;30.58;;
41201;SDS011;26936;50.524;8.684;2023-02-12T02:55:27;85.32;;;31.70;;
41201;SDS011;26936;50.524;8.684;2023-02-12T02:58:00;82.65;;;32.08;;
41201;SDS011;26936;50.524;8.684;2023-02-12T03:00:54;86.03;;;32.95;;
41201;SDS011;26936;50.524;8.684;2023-02-12T03:03:48;83.03;;;29.27;;
41201;SDS011;26936;50.524;8.684;2023-02-12T03:07:02;81.88;;;30.70;;
41201;SDS011;26936;50.524;8.684;2023-02-12T03:09:16;88.25;;;32.05;;
41201;SDS011;26936;50.524;8.684;2023-02-12T03:11:46;85.60;;;31.23;;
41201;SDS011;26936;50.524;8.684;2023-02-12T03:14:17;87.32;;;31.10;;
41201;SDS011;26936;50.524;8.684;2023-02-12T03:16:57;75.70;;;29.23;;
41201;SDS011;26936;50.524;8.684;2023-02-12T03:19:44;82.47;;;29.00;;
41201;SDS011;26936;50.524;8.684;2023-02-12T03:22:15;78.43;;;29.02;;
41201;SDS011;26936;50.524;8.684;2023-02-12T03:25:11;78.13;;;29.02;;
41201;SDS011;26936;50.524;8.684;2023-02-12T03:30:16;79.80;;;29.17;;
41201;SDS011;26936;50.524;8.684;2023-02-12T03:38:12;81.32;;;30.45;;
41201;SDS011;26936;50.524;8.684;2023-02-12T03:43:58;69.20;;;26.92;;
41201;SDS011;26936;50.524;8.684;2023-02-12T03:46:36;83.70;;;30.25;;
41201;SDS011;26936;50.524;8.684;2023-02-12T03:49:09;71.25;;;27.88;;
41201;SDS011;26936;50.524;8.684;2023-02-12T03:51:48;66.80;;;25.48;;
41201;SDS011;26936;50.524;8.684;2023-02-12T03:54:15;69.93;;;26.70;;
41201;SDS011;26936;50.524;8.684;2023-02-12T03:56:54;64.53;;;25.13;;
41201;SDS011;26936;50.524;8.684;2023-02-12T03:59:25;64.32;;;25.27;;
41201;SDS011;26936;50.524;8.684;2023-02-12T04:01:51;73.40;;;28.95;;
41201;SDS011;26936;50.524;8.684;2023-02-12T04:04:18;75.38;;;28.13;;
41201;SDS011;26936;50.524;8.684;2023-02-12T04:06:44;72.47;;;28.23;;
41201;SDS011;26936;50.524;8.684;2023-02-12T04:09:11;77.43;;;29.02;;
41201;SDS011;26936;50.524;8.684;2023-02-12T04:14:21;77.20;;;28.40;;
41201;SDS011;26936;50.524;8.684;2023-02-12T04:16:57;67.30;;;25.35;;
41201;SDS011;26936;50.524;8.684;2023-02-12T04:19:33;65.82;;;25.95;;
41201;SDS011;26936;50.524;8.684;2023-02-12T04:28:03;64.57;;;24.47;;
41201;SDS011;26936;50.524;8.684;2023-02-12T04:30:43;63.13;;;25.00;;
41201;SDS011;26936;50.524;8.684;2023-02-12T04:33:13;66.47;;;25.00;;
41201;SDS011;26936;50.524;8.684;2023-02-12T04:35:47;73.88;;;26.42;;
41201;SDS011;26936;50.524;8.684;2023-02-12T04:38:18;63.20;;;26.33;;
41201;SDS011;26936;50.524;8.684;2023-02-12T04:40:48;64.20;;;25.30;;
41201;SDS011;26936;50.524;8.684;2023-02-12T04:43:24;65.97;;;26.27;;
41201;SDS011;26936;50.524;8.684;2023-02-12T04:45:50;66.80;;;26.17;;
41201;SDS011;26936;50.524;8.684;2023-02-12T04:48:16;68.40;;;26.20;;
41201;SDS011;26936;50.524;8.684;2023-02-12T04:50:42;68.07;;;26.27;;
41201;SDS011;26936;50.524;8.684;2023-02-12T04:53:07;70.57;;;26.40;;
41201;SDS011;26936;50.524;8.684;2023-02-12T04:55:33;62.25;;;23.75;;
41201;SDS011;26936;50.524;8.684;2023-02-12T04:57:59;66.90;;;26.13;;
41201;SDS011;26936;50.524;8.684;2023-02-12T05:00:24;68.63;;;25.40;;
41201;SDS011;26936;50.524;8.684;2023-02-12T05:02:50;62.80;;;25.27;;
41201;SDS011;26936;50.524;8.684;2023-02-12T05:05:15;66.00;;;24.80;;
41201;SDS011;26936;50.524;8.684;2023-02-12T05:07:40;66.38;;;24.58;;
41201;SDS011;26936;50.524;8.684;2023-02-12T05:10:06;69.73;;;25.37;;
41201;SDS011;26936;50.524;8.684;2023-02-12T05:12:32;70.07;;;27.10;;
41201;SDS011;26936;50.524;8.684;2023-02-12T05:14:57;65.57;;;25.50;;
41201;SDS011;26936;50.524;8.684;2023-02-12T05:17:22;70.67;;;26.37;;
41201;SDS011;26936;50.524;8.684;2023-02-12T05:19:49;81.72;;;30.45;;
41201;SDS011;26936;50.524;8.684;2023-02-12T05:22:14;79.97;;;31.05;;
41201;SDS011;26936;50.524;8.684;2023-02-12T05:24:39;82.25;;;30.58;;
41201;SDS011;26936;50.524;8.684;2023-02-12T05:27:04;93.80;;;33.33;;
41201;SDS011;26936;50.524;8.684;2023-02-12T05:29:30;76.53;;;31.05;;
41201;SDS011;26936;50.524;8.684;2023-02-12T05:31:55;87.82;;;32.28;;
41201;SDS011;26936;50.524;8.684;2023-02-12T05:34:20;77.43;;;29.50;;
41201;SDS011;26936;50.524;8.684;2023-02-12T05:36:46;84.37;;;30.43;;
41201;SDS011;26936;50.524;8.684;2023-02-12T05:39:11;78.80;;;29.83;;
41201;SDS011;26936;50.524;8.684;2023-02-12T05:41:36;79.65;;;30.48;;
41201;SDS011;26936;50.524;8.684;2023-02-12T05:44:02;72.13;;;28.38;;
41201;SDS011;26936;50.524;8.684;2023-02-12T05:46:29;77.20;;;28.95;;
41201;SDS011;26936;50.524;8.684;2023-02-12T05:48:54;72.85;;;27.65;;
41201;SDS011;26936;50.524;8.684;2023-02-12T05:51:22;73.63;;;29.13;;
41201;SDS011;26936;50.524;8.684;2023-02-12T05:53:50;82.70;;;29.85;;
41201;SDS011;26936;50.524;8.684;2023-02-12T05:56:20;78.43;;;28.27;;
41201;SDS011;26936;50.524;8.684;2023-02-12T05:58:50;75.43;;;28.33;;
41201;SDS011;26936;50.524;8.684;2023-02-12T06:01:27;73.53;;;28.08;;
41201;SDS011;26936;50.524;8.684;2023-02-12T06:03:54;82.43;;;29.25;;
41201;SDS011;26936;50.524;8.684;2023-02-12T06:06:20;77.45;;;28.15;;
41201;SDS011;26936;50.524;8.684;2023-02-12T06:08:48;77.28;;;30.45;;
41201;SDS011;26936;50.524;8.684;2023-02-12T06:11:14;73.03;;;28.10;;
41201;SDS011;26936;50.524;8.684;2023-02-12T06:13:40;70.70;;;29.27;;
41201;SDS011;26936;50.524;8.684;2023-02-12T06:16:06;83.07;;;29.42;;
41201;SDS011;26936;50.524;8.684;2023-02-12T06:18:39;77.75;;;28.65;;
41201;SDS011;26936;50.524;8.684;2023-02-12T06:21:04;75.30;;;29.70;;
41201;SDS011;26936;50.524;8.684;2023-02-12T06:23:29;76.30;;;29.88;;
41201;SDS011;26936;50.524;8.684;2023-02-12T06:25:55;79.63;;;29.57;;
41201;SDS011;26936;50.524;8.684;2023-02-12T06:28:20;73.65;;;28.15;;
41201;SDS011;26936;50.524;8.684;2023-02-12T06:30:46;78.80;;;29.95;;
41201;SDS011;26936;50.524;8.684;2023-02-12T06:33:11;78.17;;;29.20;;
41201;SDS011;26936;50.524;8.684;2023-02-12T06:35:37;83.57;;;30.93;;
41201;SDS011;26936;50.524;8.684;2023-02-12T06:38:02;81.50;;;31.10;;
41201;SDS011;26936;50.524;8.684;2023-02-12T06:40:28;89.85;;;31.80;;
41201;SDS011;26936;50.524;8.684;2023-02-12T06:42:53;85.75;;;31.48;;
41201;SDS011;26936;50.524;8.684;2023-02-12T06:45:18;89.65;;;31.85;;
41201;SDS011;26936;50.524;8.684;2023-02-12T06:47:44;84.17;;;29.17;;
41201;SDS011;26936;50.524;8.684;2023-02-12T06:50:09;92.43;;;32.22;;
41201;SDS011;26936;50.524;8.684;2023-02-12T06:52:34;89.55;;;32.58;;
41201;SDS011;26936;50.524;8.684;2023-02-12T06:55:00;81.75;;;30.52;;
41201;SDS011;26936;50.524;8.684;2023-02-12T06:57:25;82.53;;;30.90;;
41201;SDS011;26936;50.524;8.684;2023-02-12T06:59:50;84.20;;;30.73;;
41201;SDS011;26936;50.524;8.684;2023-02-12T07:02:15;84.07;;;30.88;;
41201;SDS011;26936;50.524;8.684;2023-02-12T07:04:41;88.97;;;31.33;;
41201;SDS011;26936;50.524;8.684;2023-02-12T07:07:06;90.30;;;32.13;;
41201;SDS011;26936;50.524;8.684;2023-02-12T07:09:31;89.10;;;32.08;;
41201;SDS011;26936;50.524;8.684;2023-02-12T07:11:57;85.80;;;33.05;;
41201;SDS011;26936;50.524;8.684;2023-02-12T07:14:23;91.82;;;33.58;;
41201;SDS011;26936;50.524;8.684;2023-02-12T07:16:48;82.35;;;30.92;;
41201;SDS011;26936;50.524;8.684;2023-02-12T07:19:14;94.07;;;32.30;;
41201;SDS011;26936;50.524;8.684;2023-02-12T07:21:40;93.93;;;33.10;;
41201;SDS011;26936;50.524;8.684;2023-02-12T07:24:06;83.22;;;32.85;;
41201;SDS011;26936;50.524;8.684;2023-02-12T07:26:32;92.53;;;32.10;;
41201;SDS011;26936;50.524;8.684;2023-02-12T07:28:57;91.22;;;33.80;;
41201;SDS011;26936;50.524;8.684;2023-02-12T07:31:23;96.82;;;36.00;;
41201;SDS011;26936;50.524;8.684;2023-02-12T07:33:48;102.72;;;36.30;;
41201;SDS011;26936;50.524;8.684;2023-02-12T07:36:18;103.55;;;38.15;;
41201;SDS011;26936;50.524;8.684;2023-02-12T07:38:43;91.82;;;34.35;;
41201;SDS011;26936;50.524;8.684;2023-02-12T07:41:19;92.55;;;37.28;;
41201;SDS011;26936;50.524;8.684;2023-02-12T07:43:48;95.93;;;35.67;;
41201;SDS011;26936;50.524;8.684;2023-02-12T07:46:19;95.05;;;35.85;;
41201;SDS011;26936;50.524;8.684;2023-02-12T07:48:47;98.88;;;37.63;;
41201;SDS011;26936;50.524;8.684;2023-02-12T07:51:15;92.25;;;33.65;;
41201;SDS011;26936;50.524;8.684;2023-02-12T07:53:43;86.82;;;34.33;;
41201;SDS011;26936;50.524;8.684;2023-02-12T07:56:09;96.53;;;34.35;;
41201;SDS011;26936;50.524;8.684;2023-02-12T07:58:37;94.18;;;34.05;;
41201;SDS011;26936;50.524;8.684;2023-02-12T08:01:10;94.22;;;34.55;;
41201;SDS011;26936;50.524;8.684;2023-02-12T08:03:44;93.55;;;33.40;;
41201;SDS011;26936;50.524;8.684;2023-02-12T08:06:11;95.13;;;32.58;;
41201;SDS011;26936;50.524;8.684;2023-02-12T08:08:38;85.88;;;32.58;;
41201;SDS011;26936;50.524;8.684;2023-02-12T08:11:04;89.93;;;33.38;;
41201;SDS011;26936;50.524;8.684;2023-02-12T08:13:31;93.63;;;36.22;;
41201;SDS011;26936;50.524;8.684;2023-02-12T08:16:00;93.20;;;33.50;;
41201;SDS011;26936;50.524;8.684;2023-02-12T08:18:27;95.25;;;34.90;;
41201;SDS011;26936;50.524;8.684;2023-02-12T08:20:52;87.50;;;34.13;;
41201;SDS011;26936;50.524;8.684;2023-02-12T08:23:17;91.57;;;34.80;;
41201;SDS011;26936;50.524;8.684;2023-02-12T08:25:42;89.07;;;33.63;;
41201;SDS011;26936;50.524;8.684;2023-02-12T08:28:07;95.30;;;35.10;;
41201;SDS011;26936;50.524;8.684;2023-02-12T08:30:33;89.65;;;34.58;;
41201;SDS011;26936;50.524;8.684;2023-02-12T08:32:58;90.13;;;35.50;;
41201;SDS011;26936;50.524;8.684;2023-02-12T08:35:23;87.00;;;32.03;;
41201;SDS011;26936;50.524;8.684;2023-02-12T08:37:49;88.50;;;31.88;;
41201;SDS011;26936;50.524;8.684;2023-02-12T08:40:14;88.33;;;32.27;;
41201;SDS011;26936;50.524;8.684;2023-02-12T08:42:39;84.20;;;32.30;;
41201;SDS011;26936;50.524;8.684;2023-02-12T08:45:04;175.77;;;71.10;;
41201;SDS011;26936;50.524;8.684;2023-02-12T08:47:30;95.90;;;38.60;;
41201;SDS011;26936;50.524;8.684;2023-02-12T08:49:55;91.77;;;34.77;;
41201;SDS011;26936;50.524;8.684;2023-02-12T08:52:20;76.33;;;30.53;;
41201;SDS011;26936;50.524;8.684;2023-02-12T08:54:46;72.90;;;28.07;;
41201;SDS011;26936;50.524;8.684;2023-02-12T08:57:11;75.55;;;29.25;;
41201;SDS011;26936;50.524;8.684;2023-02-12T08:59:36;76.87;;;29.67;;
41201;SDS011;26936;50.524;8.684;2023-02-12T09:02:01;71.80;;;28.63;;
41201;SDS011;26936;50.524;8.684;2023-02-12T09:04:28;70.05;;;27.73;;
41201;SDS011;26936;50.524;8.684;2023-02-12T09:06:54;73.07;;;29.40;;
41201;SDS011;26936;50.524;8.684;2023-02-12T09:09:20;66.53;;;27.35;;
41201;SDS011;26936;50.524;8.684;2023-02-12T09:11:46;67.40;;;27.67;;
41201;SDS011;26936;50.524;8.684;2023-02-12T09:14:13;68.43;;;28.17;;
41201;SDS011;26936;50.524;8.684;2023-02-12T09:16:42;79.38;;;31.52;;
41201;SDS011;26936;50.524;8.684;2023-02-12T09:19:09;74.90;;;29.88;;
41201;SDS011;26936;50.524;8.684;2023-02-12T09:21:36;75.85;;;30.10;;
41201;SDS011;26936;50.524;8.684;2023-02-12T09:24:02;74.13;;;29.50;;
41201;SDS011;26936;50.524;8.684;2023-02-12T09:26:27;67.78;;;28.42;;
41201;SDS011;26936;50.524;8.684;2023-02-12T09:28:53;65.25;;;27.13;;
41201;SDS011;26936;50.524;8.684;2023-02-12T09:31:20;68.63;;;27.95;;
41201;SDS011;26936;50.524;8.684;2023-02-12T09:33:50;62.03;;;25.83;;
41201;SDS011;26936;50.524;8.684;2023-02-12T09:36:15;61.75;;;26.08;;
41201;SDS011;26936;50.524;8.684;2023-02-12T09:38:41;60.08;;;24.45;;
41201;SDS011;26936;50.524;8.684;2023-02-12T09:41:23;64.95;;;26.15;;
41201;SDS011;26936;50.524;8.684;2023-02-12T09:46:58;58.63;;;23.45;;
41201;SDS011;26936;50.524;8.684;2023-02-12T09:52:29;52.20;;;21.63;;
41201;SDS011;26936;50.524;8.684;2023-02-12T09:54:54;54.45;;;23.13;;
41201;SDS011;26936;50.524;8.684;2023-02-12T09:57:30;50.75;;;22.75;;
41201;SDS011;26936;50.524;8.684;2023-02-12T10:02:30;52.53;;;22.88;;
41201;SDS011;26936;50.524;8.684;2023-02-12T10:04:59;54.67;;;23.13;;
41201;SDS011;26936;50.524;8.684;2023-02-12T10:26:10;54.00;;;23.65;;
41201;SDS011;26936;50.524;8.684;2023-02-12T10:28:50;51.28;;;24.10;;
41201;SDS011;26936;50.524;8.684;2023-02-12T10:31:29;54.95;;;24.58;;
41201;SDS011;26936;50.524;8.684;2023-02-12T10:33:58;61.67;;;25.17;;
41201;SDS011;26936;50.524;8.684;2023-02-12T10:39:10;61.85;;;25.85;;
41201;SDS011;26936;50.524;8.684;2023-02-12T10:41:42;64.30;;;25.83;;
41201;SDS011;26936;50.524;8.684;2023-02-12T10:44:12;61.72;;;26.63;;
41201;SDS011;26936;50.524;8.684;2023-02-12T10:46:37;71.97;;;28.03;;
41201;SDS011;26936;50.524;8.684;2023-02-12T10:49:03;65.15;;;25.52;;
41201;SDS011;26936;50.524;8.684;2023-02-12T10:51:42;52.88;;;23.10;;
41201;SDS011;26936;50.524;8.684;2023-02-12T10:54:33;52.15;;;22.67;;
41201;SDS011;26936;50.524;8.684;2023-02-12T10:57:05;57.95;;;25.60;;
41201;SDS011;26936;50.524;8.684;2023-02-12T10:59:35;55.83;;;23.33;;
41201;SDS011;26936;50.524;8.684;2023-02-12T11:02:00;56.90;;;23.67;;
41201;SDS011;26936;50.524;8.684;2023-02-12T11:04:27;56.90;;;23.02;;
41201;SDS011;26936;50.524;8.684;2023-02-12T11:07:03;57.17;;;24.80;;
41201;SDS011;26936;50.524;8.684;2023-02-12T11:09:38;56.70;;;23.95;;
41201;SDS011;26936;50.524;8.684;2023-02-12T11:12:16;52.25;;;23.17;;
41201;SDS011;26936;50.524;8.684;2023-02-12T11:14:47;51.13;;;21.08;;
41201;SDS011;26936;50.524;8.684;2023-02-12T11:17:18;55.90;;;24.13;;
41201;SDS011;26936;50.524;8.684;2023-02-12T11:20:00;58.28;;;25.15;;
41201;SDS011;26936;50.524;8.684;2023-02-12T11:22:54;56.53;;;24.70;;
41201;SDS011;26936;50.524;8.684;2023-02-12T11:25:21;57.22;;;23.20;;
41201;SDS011;26936;50.524;8.684;2023-02-12T11:27:57;51.55;;;22.05;;
41201;SDS011;26936;50.524;8.684;2023-02-12T11:30:23;53.90;;;22.40;;
41201;SDS011;26936;50.524;8.684;2023-02-12T11:32:48;55.38;;;22.30;;
41201;SDS011;26936;50.524;8.684;2023-02-12T11:35:16;52.40;;;23.55;;
41201;SDS011;26936;50.524;8.684;2023-02-12T11:37:48;56.90;;;24.37;;
41201;SDS011;26936;50.524;8.684;2023-02-12T11:42:58;53.25;;;23.13;;
41201;SDS011;26936;50.524;8.684;2023-02-12T11:45:29;52.42;;;22.30;;
41201;SDS011;26936;50.524;8.684;2023-02-12T11:48:24;48.10;;;21.48;;
41201;SDS011;26936;50.524;8.684;2023-02-12T11:50:54;49.72;;;22.00;;
41201;SDS011;26936;50.524;8.684;2023-02-12T11:53:23;47.20;;;20.63;;
41201;SDS011;26936;50.524;8.684;2023-02-12T11:55:57;48.78;;;21.38;;
41201;SDS011;26936;50.524;8.684;2023-02-12T11:58:25;52.00;;;23.77;;
41201;SDS011;26936;50.524;8.684;2023-02-12T12:00:53;54.88;;;22.20;;
41201;SDS011;26936;50.524;8.684;2023-02-12T12:03:37;51.17;;;21.85;;
41201;SDS011;26936;50.524;8.684;2023-02-12T12:06:21;43.63;;;20.05;;
41201;SDS011;26936;50.524;8.684;2023-02-12T12:11:55;49.67;;;22.17;;
41201;SDS011;26936;50.524;8.684;2023-02-12T12:14:43;38.65;;;17.65;;
41201;SDS011;26936;50.524;8.684;2023-02-12T12:17:40;43.17;;;20.50;;
41201;SDS011;26936;50.524;8.684;2023-02-12T12:20:38;41.83;;;19.45;;
41201;SDS011;26936;50.524;8.684;2023-02-12T12:23:14;48.45;;;21.52;;
41201;SDS011;26936;50.524;8.684;2023-02-12T12:25:53;41.70;;;19.58;;
41201;SDS011;26936;50.524;8.684;2023-02-12T12:31:01;39.72;;;18.00;;
41201;SDS011;26936;50.524;8.684;2023-02-12T12:33:47;35.30;;;17.30;;
41201;SDS011;26936;50.524;8.684;2023-02-12T12:36:28;28.98;;;15.27;;
41201;SDS011;26936;50.524;8.684;2023-02-12T12:47:32;12.02;;;6.50;;
41201;SDS011;26936;50.524;8.684;2023-02-12T12:50:27;12.32;;;7.18;;
41201;SDS011;26936;50.524;8.684;2023-02-12T12:58:48;13.30;;;6.85;;
41201;SDS011;26936;50.524;8.684;2023-02-12T13:01:58;12.10;;;6.57;;
41201;SDS011;26936;50.524;8.684;2023-02-12T13:08:00;19.88;;;10.27;;
41201;SDS011;26936;50.524;8.684;2023-02-12T13:10:43;20.85;;;10.75;;
41201;SDS011;26936;50.524;8.684;2023-02-12T13:13:23;21.63;;;11.20;;
41201;SDS011;26936;50.524;8.684;2023-02-12T13:22:05;25.88;;;12.13;;
41201;SDS011;26936;50.524;8.684;2023-02-12T13:24:55;30.58;;;14.10;;
41201;SDS011;26936;50.524;8.684;2023-02-12T13:27:29;40.30;;;17.25;;
41201;SDS011;26936;50.524;8.684;2023-02-12T13:30:19;43.90;;;18.35;;
41201;SDS011;26936;50.524;8.684;2023-02-12T13:33:08;41.55;;;18.45;;
41201;SDS011;26936;50.524;8.684;2023-02-12T13:35:40;38.90;;;16.77;;
41201;SDS011;26936;50.524;8.684;2023-02-12T13:38:12;35.53;;;14.88;;
41201;SDS011;26936;50.524;8.684;2023-02-12T13:40:43;34.30;;;16.38;;
41201;SDS011;26936;50.524;8.684;2023-02-12T13:51:43;37.95;;;17.50;;
41201;SDS011;26936;50.524;8.684;2023-02-12T13:54:21;37.70;;;16.35;;
41201;SDS011;26936;50.524;8.684;2023-02-12T13:56:56;30.88;;;14.93;;
41201;SDS011;26936;50.524;8.684;2023-02-12T14:01:56;30.55;;;14.05;;
41201;SDS011;26936;50.524;8.684;2023-02-12T14:06:57;30.23;;;14.15;;
41201;SDS011;26936;50.524;8.684;2023-02-12T14:09:26;31.75;;;15.30;;
41201;SDS011;26936;50.524;8.684;2023-02-12T14:11:56;34.53;;;16.13;;
41201;SDS011;26936;50.524;8.684;2023-02-12T14:14:27;32.42;;;16.23;;
41201;SDS011;26936;50.524;8.684;2023-02-12T14:16:56;31.50;;;14.48;;
41201;SDS011;26936;50.524;8.684;2023-02-12T14:22:55;21.48;;;10.63;;
41201;SDS011;26936;50.524;8.684;2023-02-12T14:27:46;22.15;;;11.10;;
41201;SDS011;26936;50.524;8.684;2023-02-12T14:41:02;18.33;;;9.00;;
41201;SDS011;26936;50.524;8.684;2023-02-12T14:46:42;31.73;;;14.10;;
41201;SDS011;26936;50.524;8.684;2023-02-12T14:49:16;28.60;;;13.57;;
41201;SDS011;26936;50.524;8.684;2023-02-12T14:54:39;27.80;;;12.27;;
41201;SDS011;26936;50.524;8.684;2023-02-12T14:57:35;28.42;;;12.85;;
41201;SDS011;26936;50.524;8.684;2023-02-12T15:02:47;26.38;;;12.38;;
41201;SDS011;26936;50.524;8.684;2023-02-12T15:05:25;25.25;;;11.93;;
41201;SDS011;26936;50.524;8.684;2023-02-12T15:07:59;24.38;;;10.57;;
41201;SDS011;26936;50.524;8.684;2023-02-12T15:11:04;24.38;;;11.18;;
41201;SDS011;26936;50.524;8.684;2023-02-12T15:19:16;25.15;;;10.88;;
41201;SDS011;26936;50.524;8.684;2023-02-12T15:21:45;23.15;;;9.98;;
41201;SDS011;26936;50.524;8.684;2023-02-12T15:24:11;20.77;;;10.52;;
41201;SDS011;26936;50.524;8.684;2023-02-12T15:26:43;19.33;;;9.35;;
41201;SDS011;26936;50.524;8.684;2023-02-12T15:29:19;21.45;;;10.02;;
41201;SDS011;26936;50.524;8.684;2023-02-12T15:31:52;22.00;;;9.98;;
41201;SDS011;26936;50.524;8.684;2023-02-12T15:34:20;20.63;;;10.13;;
41201;SDS011;26936;50.524;8.684;2023-02-12T15:36:47;18.88;;;8.60;;
41201;SDS011;26936;50.524;8.684;2023-02-12T15:39:14;18.50;;;8.30;;
41201;SDS011;26936;50.524;8.684;2023-02-12T15:41:46;20.63;;;9.25;;
41201;SDS011;26936;50.524;8.684;2023-02-12T15:44:26;19.33;;;9.07;;
41201;SDS011;26936;50.524;8.684;2023-02-12T15:46:54;18.00;;;8.90;;
41201;SDS011;26936;50.524;8.684;2023-02-12T15:49:29;15.00;;;7.93;;
41201;SDS011;26936;50.524;8.684;2023-02-12T15:51:56;15.25;;;7.50;;
41201;SDS011;26936;50.524;8.684;2023-02-12T15:54:25;14.48;;;7.43;;
41201;SDS011;26936;50.524;8.684;2023-02-12T15:56:52;15.20;;;6.97;;
41201;SDS011;26936;50.524;8.684;2023-02-12T15:59:19;10.80;;;5.90;;
41201;SDS011;26936;50.524;8.684;2023-02-12T16:01:57;11.25;;;6.40;;
41201;SDS011;26936;50.524;8.684;2023-02-12T16:04:27;9.73;;;5.68;;
41201;SDS011;26936;50.524;8.684;2023-02-12T16:06:55;10.50;;;6.10;;
41201;SDS011;26936;50.524;8.684;2023-02-12T16:09:24;12.35;;;5.82;;
41201;SDS011;26936;50.524;8.684;2023-02-12T16:11:54;10.40;;;5.55;;
41201;SDS011;26936;50.524;8.684;2023-02-12T16:14:23;10.00;;;5.75;;
41201;SDS011;26936;50.524;8.684;2023-02-12T16:16:52;8.98;;;5.38;;
41201;SDS011;26936;50.524;8.684;2023-02-12T16:22:14;11.68;;;6.20;;
41201;SDS011;26936;50.524;8.684;2023-02-12T16:24:48;13.18;;;6.72;;
41201;SDS011;26936;50.524;8.684;2023-02-12T16:29:48;12.95;;;6.35;;
41201;SDS011;26936;50.524;8.684;2023-02-12T16:32:27;12.38;;;6.53;;
41201;SDS011;26936;50.524;8.684;2023-02-12T16:47:52;13.80;;;7.38;;
41201;SDS011;26936;50.524;8.684;2023-02-12T16:50:19;13.38;;;6.65;;
41201;SDS011;26936;50.524;8.684;2023-02-12T16:52:49;15.65;;;7.80;;
41201;SDS011;26936;50.524;8.684;2023-02-12T16:55:27;17.92;;;10.35;;
41201;SDS011;26936;50.524;8.684;2023-02-12T16:57:52;25.40;;;14.45;;
41201;SDS011;26936;50.524;8.684;2023-02-12T17:00:18;18.60;;;10.98;;
41201;SDS011;26936;50.524;8.684;2023-02-12T17:02:43;23.38;;;13.63;;
41201;SDS011;26936;50.524;8.684;2023-02-12T17:05:11;15.73;;;8.88;;
41201;SDS011;26936;50.524;8.684;2023-02-12T17:07:40;14.00;;;8.15;;
41201;SDS011;26936;50.524;8.684;2023-02-12T17:10:06;20.23;;;10.63;;
41201;SDS011;26936;50.524;8.684;2023-02-12T17:12:43;19.85;;;10.88;;
41201;SDS011;26936;50.524;8.684;2023-02-12T17:15:09;19.92;;;10.73;;
41201;SDS011;26936;50.524;8.684;2023-02-12T17:17:50;14.80;;;8.23;;
41201;SDS011;26936;50.524;8.684;2023-02-12T17:20:16;13.80;;;7.50;;
41201;SDS011;26936;50.524;8.684;2023-02-12T17:22:43;11.40;;;7.03;;
41201;SDS011;26936;50.524;8.684;2023-02-12T17:25:18;14.43;;;7.57;;
41201;SDS011;26936;50.524;8.684;2023-02-12T17:27:44;15.85;;;7.93;;
41201;SDS011;26936;50.524;8.684;2023-02-12T17:30:10;14.63;;;6.75;;
41201;SDS011;26936;50.524;8.684;2023-02-12T17:32:39;13.90;;;7.10;;